KSCR/SCR METAR and TAF weather

Enter ICAO airport designator
Station Type Date Time Source
KSCR METAR 2022/07/01 01:55 UTC NOAA

KSCR 010155Z AUTO 20003KT 10SM CLR 25/22 A3019 RMK AO2 T02510215


Station Type Date Time Source
KSCR Decoded METAR 2022/07/01 01:55 UTC NOAA

Station name not available
Jun 30, 2022 - 09:55 PM EDT / 2022.07.01 0155 UTC
Wind: from the SSW (200 degrees) at 3 MPH (3 KT):0
Visibility: 10 mile(s):0
Sky conditions: clear
Temperature: 77.2 F (25.1 C)
Dew Point: 70.7 F (21.5 C)
Relative Humidity: 80%
Pressure (altimeter): 30.19 in. Hg (1022 hPa)
ob: KSCR 010155Z AUTO 20003KT 10SM CLR 25/22 A3019 RMK AO2 T02510215
cycle: 2

Station Type Date Time Source
KSCR TAF UTC NOAA

Error!

Example: see airport list